Lyons, Wisconsin
Current Conditions -  °F | °C
As of 1:15 PM on Monday 20 Oct 2014 (Local Time) from KBUU Reporting Station
Broken Clouds Broken Clouds  
Wind Chill: 60°   Ceiling: 3600
Heat Index: 60°   Visibility: 10mi
Dew Point: 44°   Wind: 18mph
Humidity: 54%   Direction: 320°NW
Pressure: 29.86"   Gusts: NA
Location:  42.65°N, 88.36°W
Report Text: KBUU 201815Z AUTO 32016KT 10SM BKN036 BKN041 16/07 A2986 RMK AO2 T01580066
Loading
Personal Weather Stations






























Interactive Weather Map
Tropical Storm Tracking
New forecast layout! Learn more

10-Day Weather Forecast

Advertisements
Track Severe Weather on mobile